sensor_id;sensor_type;location;lat;lon;timestamp;pressure;altitude;pressure_sealevel;temperature;humidity
80654;BME280;70020;45.524;10.240;2023-07-09T00:01:11;100577.53;;;26.52;50.13
80654;BME280;70020;45.524;10.240;2023-07-09T00:03:40;100584.22;;;26.48;50.36
80654;BME280;70020;45.524;10.240;2023-07-09T00:06:07;100583.22;;;26.49;49.55
80654;BME280;70020;45.524;10.240;2023-07-09T00:08:33;100579.88;;;26.34;50.91
80654;BME280;70020;45.524;10.240;2023-07-09T00:10:59;100572.75;;;26.34;50.15
80654;BME280;70020;45.524;10.240;2023-07-09T00:13:26;100582.50;;;26.27;50.03
80654;BME280;70020;45.524;10.240;2023-07-09T00:15:56;100583.31;;;26.28;50.49
80654;BME280;70020;45.524;10.240;2023-07-09T00:18:23;100579.34;;;26.11;51.05
80654;BME280;70020;45.524;10.240;2023-07-09T00:20:48;100572.72;;;26.00;51.30
80654;BME280;70020;45.524;10.240;2023-07-09T00:23:14;100575.16;;;25.95;51.85
80654;BME280;70020;45.524;10.240;2023-07-09T00:25:42;100573.94;;;25.98;51.93
80654;BME280;70020;45.524;10.240;2023-07-09T00:28:16;100571.69;;;26.01;51.68
80654;BME280;70020;45.524;10.240;2023-07-09T00:30:44;100568.47;;;26.06;51.68
80654;BME280;70020;45.524;10.240;2023-07-09T00:33:14;100568.28;;;26.07;51.64
80654;BME280;70020;45.524;10.240;2023-07-09T00:35:45;100576.94;;;26.16;51.58
80654;BME280;70020;45.524;10.240;2023-07-09T00:38:18;100570.69;;;26.02;53.62
80654;BME280;70020;45.524;10.240;2023-07-09T00:48:43;100577.06;;;25.80;53.90
80654;BME280;70020;45.524;10.240;2023-07-09T00:51:16;100578.91;;;25.80;54.40
80654;BME280;70020;45.524;10.240;2023-07-09T00:53:44;100575.44;;;25.79;54.49
80654;BME280;70020;45.524;10.240;2023-07-09T00:56:15;100574.56;;;25.72;54.84
80654;BME280;70020;45.524;10.240;2023-07-09T00:58:44;100574.34;;;25.67;54.62
80654;BME280;70020;45.524;10.240;2023-07-09T01:01:16;100568.16;;;25.60;54.87
80654;BME280;70020;45.524;10.240;2023-07-09T01:03:49;100570.16;;;25.58;55.52
80654;BME280;70020;45.524;10.240;2023-07-09T01:06:23;100574.66;;;25.57;55.45
80654;BME280;70020;45.524;10.240;2023-07-09T01:08:51;100574.78;;;25.49;56.09
80654;BME280;70020;45.524;10.240;2023-07-09T01:11:21;100572.22;;;25.41;56.12
80654;BME280;70020;45.524;10.240;2023-07-09T01:13:51;100568.22;;;25.24;56.20
80654;BME280;70020;45.524;10.240;2023-07-09T01:16:19;100574.47;;;25.17;56.43
80654;BME280;70020;45.524;10.240;2023-07-09T01:18:46;100579.25;;;25.28;56.50
80654;BME280;70020;45.524;10.240;2023-07-09T01:21:12;100583.34;;;25.30;56.11
80654;BME280;70020;45.524;10.240;2023-07-09T01:23:41;100580.34;;;25.33;56.09
80654;BME280;70020;45.524;10.240;2023-07-09T01:26:10;100581.53;;;25.31;55.56
80654;BME280;70020;45.524;10.240;2023-07-09T01:28:37;100581.28;;;25.26;56.59
80654;BME280;70020;45.524;10.240;2023-07-09T01:31:03;100583.56;;;25.29;55.89
80654;BME280;70020;45.524;10.240;2023-07-09T01:33:30;100574.22;;;25.33;55.92
80654;BME280;70020;45.524;10.240;2023-07-09T01:35:56;100578.69;;;25.32;56.62
80654;BME280;70020;45.524;10.240;2023-07-09T01:38:26;100575.72;;;25.21;56.93
80654;BME280;70020;45.524;10.240;2023-07-09T01:40:58;100580.97;;;25.14;57.45
80654;BME280;70020;45.524;10.240;2023-07-09T01:43:25;100581.06;;;25.06;58.29
80654;BME280;70020;45.524;10.240;2023-07-09T01:45:51;100579.81;;;25.02;58.77
80654;BME280;70020;45.524;10.240;2023-07-09T01:48:17;100586.94;;;25.01;58.75
80654;BME280;70020;45.524;10.240;2023-07-09T01:50:43;100598.28;;;24.95;58.60
80654;BME280;70020;45.524;10.240;2023-07-09T01:53:12;100594.63;;;24.96;59.07
80654;BME280;70020;45.524;10.240;2023-07-09T01:55:40;100589.25;;;24.75;59.55
80654;BME280;70020;45.524;10.240;2023-07-09T01:58:06;100588.19;;;24.70;59.72
80654;BME280;70020;45.524;10.240;2023-07-09T02:00:33;100591.28;;;24.73;59.48
80654;BME280;70020;45.524;10.240;2023-07-09T02:03:03;100587.31;;;24.77;59.52
80654;BME280;70020;45.524;10.240;2023-07-09T02:05:33;100586.91;;;24.80;58.87
80654;BME280;70020;45.524;10.240;2023-07-09T02:07:59;100585.91;;;24.81;58.92
80654;BME280;70020;45.524;10.240;2023-07-09T02:10:25;100587.72;;;24.81;59.30
80654;BME280;70020;45.524;10.240;2023-07-09T02:12:51;100583.44;;;24.80;59.41
80654;BME280;70020;45.524;10.240;2023-07-09T02:15:16;100590.75;;;24.78;59.32
80654;BME280;70020;45.524;10.240;2023-07-09T02:17:42;100586.53;;;24.69;59.77
80654;BME280;70020;45.524;10.240;2023-07-09T02:20:09;100587.91;;;24.65;59.80
80654;BME280;70020;45.524;10.240;2023-07-09T02:22:37;100591.28;;;24.59;59.54
80654;BME280;70020;45.524;10.240;2023-07-09T02:25:04;100590.84;;;24.55;58.98
80654;BME280;70020;45.524;10.240;2023-07-09T02:27:29;100599.44;;;24.57;60.20
80654;BME280;70020;45.524;10.240;2023-07-09T02:29:55;100608.91;;;24.52;58.60
80654;BME280;70020;45.524;10.240;2023-07-09T02:32:24;100606.81;;;24.47;59.88
80654;BME280;70020;45.524;10.240;2023-07-09T02:34:51;100599.91;;;24.46;59.43
80654;BME280;70020;45.524;10.240;2023-07-09T02:37:19;100610.38;;;24.54;58.49
80654;BME280;70020;45.524;10.240;2023-07-09T02:39:46;100614.03;;;24.53;59.19
80654;BME280;70020;45.524;10.240;2023-07-09T02:42:14;100616.78;;;24.45;60.04
80654;BME280;70020;45.524;10.240;2023-07-09T02:44:42;100617.31;;;24.41;59.32
80654;BME280;70020;45.524;10.240;2023-07-09T02:47:08;100618.16;;;24.41;59.91
80654;BME280;70020;45.524;10.240;2023-07-09T02:49:34;100623.44;;;24.41;59.64
80654;BME280;70020;45.524;10.240;2023-07-09T02:52:00;100626.09;;;24.41;59.59
80654;BME280;70020;45.524;10.240;2023-07-09T02:54:25;100629.28;;;24.37;60.56
80654;BME280;70020;45.524;10.240;2023-07-09T02:56:51;100634.28;;;24.31;60.47
80654;BME280;70020;45.524;10.240;2023-07-09T02:59:17;100631.66;;;24.31;60.34
80654;BME280;70020;45.524;10.240;2023-07-09T03:01:43;100633.38;;;24.24;61.09
80654;BME280;70020;45.524;10.240;2023-07-09T03:04:08;100630.66;;;24.18;61.32
80654;BME280;70020;45.524;10.240;2023-07-09T03:06:34;100629.34;;;24.14;61.84
80654;BME280;70020;45.524;10.240;2023-07-09T03:09:01;100631.19;;;24.13;61.97
80654;BME280;70020;45.524;10.240;2023-07-09T03:11:29;100635.69;;;24.05;61.90
80654;BME280;70020;45.524;10.240;2023-07-09T03:13:56;100627.13;;;24.03;62.41
80654;BME280;70020;45.524;10.240;2023-07-09T03:16:22;100629.75;;;24.03;62.18
80654;BME280;70020;45.524;10.240;2023-07-09T03:18:47;100623.97;;;24.07;62.31
80654;BME280;70020;45.524;10.240;2023-07-09T03:21:17;100624.28;;;24.04;62.53
80654;BME280;70020;45.524;10.240;2023-07-09T03:23:44;100629.97;;;24.01;62.86
80654;BME280;70020;45.524;10.240;2023-07-09T03:26:10;100631.84;;;23.93;63.25
80654;BME280;70020;45.524;10.240;2023-07-09T03:28:36;100627.38;;;23.93;63.34
80654;BME280;70020;45.524;10.240;2023-07-09T03:31:02;100633.31;;;23.95;62.53
80654;BME280;70020;45.524;10.240;2023-07-09T03:33:28;100631.50;;;23.96;60.77
80654;BME280;70020;45.524;10.240;2023-07-09T03:35:53;100631.69;;;23.94;61.47
80654;BME280;70020;45.524;10.240;2023-07-09T03:38:20;100631.13;;;23.99;62.74
80654;BME280;70020;45.524;10.240;2023-07-09T03:40:50;100633.25;;;24.03;62.19
80654;BME280;70020;45.524;10.240;2023-07-09T03:43:16;100638.69;;;24.02;62.46
80654;BME280;70020;45.524;10.240;2023-07-09T03:45:41;100639.59;;;23.94;62.42
80654;BME280;70020;45.524;10.240;2023-07-09T03:48:09;100634.03;;;23.89;62.70
80654;BME280;70020;45.524;10.240;2023-07-09T03:50:35;100631.09;;;23.84;63.35
80654;BME280;70020;45.524;10.240;2023-07-09T03:53:00;100635.03;;;23.88;63.07
80654;BME280;70020;45.524;10.240;2023-07-09T03:55:26;100639.88;;;23.85;63.82
80654;BME280;70020;45.524;10.240;2023-07-09T03:57:53;100636.38;;;23.84;63.35
80654;BME280;70020;45.524;10.240;2023-07-09T04:00:19;100640.41;;;23.80;63.44
80654;BME280;70020;45.524;10.240;2023-07-09T04:02:46;100633.25;;;23.81;63.88
80654;BME280;70020;45.524;10.240;2023-07-09T04:05:11;100640.94;;;23.76;63.85
80654;BME280;70020;45.524;10.240;2023-07-09T04:07:37;100643.38;;;23.77;63.79
80654;BME280;70020;45.524;10.240;2023-07-09T04:10:04;100638.94;;;23.78;64.12
80654;BME280;70020;45.524;10.240;2023-07-09T04:12:30;100632.22;;;23.90;63.04
80654;BME280;70020;45.524;10.240;2023-07-09T04:14:56;100639.47;;;23.88;62.65
80654;BME280;70020;45.524;10.240;2023-07-09T04:17:22;100632.91;;;23.84;62.61
80654;BME280;70020;45.524;10.240;2023-07-09T04:19:49;100635.13;;;23.80;63.04
80654;BME280;70020;45.524;10.240;2023-07-09T04:22:16;100634.91;;;23.82;63.73
80654;BME280;70020;45.524;10.240;2023-07-09T04:24:42;100633.47;;;23.79;62.20
80654;BME280;70020;45.524;10.240;2023-07-09T04:27:08;100636.75;;;23.81;63.13
80654;BME280;70020;45.524;10.240;2023-07-09T04:29:33;100640.03;;;23.83;63.14
80654;BME280;70020;45.524;10.240;2023-07-09T04:32:07;100638.09;;;23.77;62.37
80654;BME280;70020;45.524;10.240;2023-07-09T04:34:33;100639.72;;;23.78;62.04
80654;BME280;70020;45.524;10.240;2023-07-09T04:36:59;100641.38;;;23.79;61.64
80654;BME280;70020;45.524;10.240;2023-07-09T04:39:25;100646.84;;;23.78;62.32
80654;BME280;70020;45.524;10.240;2023-07-09T04:41:50;100645.44;;;23.90;61.30
80654;BME280;70020;45.524;10.240;2023-07-09T04:44:16;100648.25;;;23.88;61.85
80654;BME280;70020;45.524;10.240;2023-07-09T04:46:42;100643.53;;;23.98;61.50
80654;BME280;70020;45.524;10.240;2023-07-09T04:49:08;100634.06;;;24.04;61.67
80654;BME280;70020;45.524;10.240;2023-07-09T04:51:36;100636.63;;;24.12;61.91
80654;BME280;70020;45.524;10.240;2023-07-09T04:54:02;100638.09;;;24.14;61.76
80654;BME280;70020;45.524;10.240;2023-07-09T04:56:29;100639.84;;;24.22;61.62
80654;BME280;70020;45.524;10.240;2023-07-09T04:58:55;100638.47;;;24.26;60.80
80654;BME280;70020;45.524;10.240;2023-07-09T05:01:20;100637.50;;;24.27;60.58
80654;BME280;70020;45.524;10.240;2023-07-09T05:03:46;100633.75;;;24.36;59.92
80654;BME280;70020;45.524;10.240;2023-07-09T05:06:11;100649.06;;;24.55;60.39
80654;BME280;70020;45.524;10.240;2023-07-09T05:08:37;100641.22;;;24.62;60.05
80654;BME280;70020;45.524;10.240;2023-07-09T05:11:03;100646.31;;;24.63;59.42
80654;BME280;70020;45.524;10.240;2023-07-09T05:13:28;100635.63;;;24.71;59.54
80654;BME280;70020;45.524;10.240;2023-07-09T05:15:54;100638.03;;;24.81;59.84
80654;BME280;70020;45.524;10.240;2023-07-09T05:18:20;100646.88;;;24.88;58.77
80654;BME280;70020;45.524;10.240;2023-07-09T05:20:46;100633.34;;;24.97;58.47
80654;BME280;70020;45.524;10.240;2023-07-09T05:23:12;100641.81;;;25.08;58.26
80654;BME280;70020;45.524;10.240;2023-07-09T05:25:38;100635.03;;;25.20;57.18
80654;BME280;70020;45.524;10.240;2023-07-09T05:28:04;100635.66;;;25.22;57.45
80654;BME280;70020;45.524;10.240;2023-07-09T05:30:31;100638.38;;;25.28;58.33
80654;BME280;70020;45.524;10.240;2023-07-09T05:32:57;100637.44;;;25.36;58.34
80654;BME280;70020;45.524;10.240;2023-07-09T05:35:25;100643.56;;;25.36;57.86
80654;BME280;70020;45.524;10.240;2023-07-09T05:37:55;100648.66;;;25.38;57.96
80654;BME280;70020;45.524;10.240;2023-07-09T05:40:22;100649.06;;;25.41;57.16
80654;BME280;70020;45.524;10.240;2023-07-09T05:42:48;100646.25;;;25.43;57.94
80654;BME280;70020;45.524;10.240;2023-07-09T05:45:15;100644.31;;;25.51;56.94
80654;BME280;70020;45.524;10.240;2023-07-09T05:47:41;100641.81;;;25.64;57.08
80654;BME280;70020;45.524;10.240;2023-07-09T05:50:08;100640.63;;;25.67;55.61
80654;BME280;70020;45.524;10.240;2023-07-09T05:52:33;100641.50;;;25.74;56.38
80654;BME280;70020;45.524;10.240;2023-07-09T05:54:59;100640.34;;;25.83;56.52
80654;BME280;70020;45.524;10.240;2023-07-09T05:57:24;100641.38;;;25.89;56.28
80654;BME280;70020;45.524;10.240;2023-07-09T05:59:50;100643.69;;;25.98;56.04
80654;BME280;70020;45.524;10.240;2023-07-09T06:02:19;100646.22;;;26.06;56.66
80654;BME280;70020;45.524;10.240;2023-07-09T06:04:45;100649.50;;;26.08;56.36
80654;BME280;70020;45.524;10.240;2023-07-09T06:07:12;100647.56;;;26.17;56.06
80654;BME280;70020;45.524;10.240;2023-07-09T06:09:39;100647.78;;;26.22;55.16
80654;BME280;70020;45.524;10.240;2023-07-09T06:12:06;100654.47;;;26.18;55.61
80654;BME280;70020;45.524;10.240;2023-07-09T06:14:32;100649.81;;;26.20;55.03
80654;BME280;70020;45.524;10.240;2023-07-09T06:16:58;100655.56;;;26.23;55.81
80654;BME280;70020;45.524;10.240;2023-07-09T06:19:24;100648.84;;;26.27;56.46
80654;BME280;70020;45.524;10.240;2023-07-09T06:21:50;100652.78;;;26.38;55.28
80654;BME280;70020;45.524;10.240;2023-07-09T06:24:16;100650.13;;;26.38;54.81
80654;BME280;70020;45.524;10.240;2023-07-09T06:26:42;100651.03;;;26.52;55.87
80654;BME280;70020;45.524;10.240;2023-07-09T06:29:09;100646.94;;;26.56;55.39
80654;BME280;70020;45.524;10.240;2023-07-09T06:31:35;100651.69;;;26.67;54.80
80654;BME280;70020;45.524;10.240;2023-07-09T06:34:02;100657.66;;;26.69;54.62
80654;BME280;70020;45.524;10.240;2023-07-09T06:36:28;100655.19;;;26.74;53.85
80654;BME280;70020;45.524;10.240;2023-07-09T06:38:54;100657.53;;;26.83;53.69
80654;BME280;70020;45.524;10.240;2023-07-09T06:41:19;100659.41;;;26.89;53.56
80654;BME280;70020;45.524;10.240;2023-07-09T06:43:46;100658.81;;;27.00;53.15
80654;BME280;70020;45.524;10.240;2023-07-09T06:46:13;100658.44;;;27.04;52.38
80654;BME280;70020;45.524;10.240;2023-07-09T06:48:40;100668.47;;;27.15;52.38
80654;BME280;70020;45.524;10.240;2023-07-09T06:51:05;100665.22;;;27.19;54.63
80654;BME280;70020;45.524;10.240;2023-07-09T06:53:31;100662.16;;;27.22;52.35
80654;BME280;70020;45.524;10.240;2023-07-09T06:55:57;100658.69;;;27.28;52.16
80654;BME280;70020;45.524;10.240;2023-07-09T06:58:26;100665.66;;;27.29;52.46
80654;BME280;70020;45.524;10.240;2023-07-09T07:00:53;100668.97;;;27.38;52.25
80654;BME280;70020;45.524;10.240;2023-07-09T07:03:21;100673.28;;;27.45;52.15
80654;BME280;70020;45.524;10.240;2023-07-09T07:05:48;100673.72;;;27.49;51.34
80654;BME280;70020;45.524;10.240;2023-07-09T07:08:15;100672.06;;;27.54;49.83
80654;BME280;70020;45.524;10.240;2023-07-09T07:10:42;100671.06;;;27.62;49.72
80654;BME280;70020;45.524;10.240;2023-07-09T07:13:08;100665.94;;;27.67;50.52
80654;BME280;70020;45.524;10.240;2023-07-09T07:15:38;100667.16;;;27.71;48.66
80654;BME280;70020;45.524;10.240;2023-07-09T07:18:05;100659.22;;;27.78;48.16
80654;BME280;70020;45.524;10.240;2023-07-09T07:20:30;100668.00;;;27.85;48.42
80654;BME280;70020;45.524;10.240;2023-07-09T07:22:56;100657.56;;;27.96;49.17
80654;BME280;70020;45.524;10.240;2023-07-09T07:25:23;100652.06;;;28.04;47.73
80654;BME280;70020;45.524;10.240;2023-07-09T07:27:48;100653.28;;;28.08;48.59
80654;BME280;70020;45.524;10.240;2023-07-09T07:30:14;100651.63;;;28.14;48.24
80654;BME280;70020;45.524;10.240;2023-07-09T07:32:45;100650.22;;;28.18;46.75
80654;BME280;70020;45.524;10.240;2023-07-09T07:35:11;100655.09;;;28.21;46.38
80654;BME280;70020;45.524;10.240;2023-07-09T07:37:38;100656.34;;;28.25;46.34
80654;BME280;70020;45.524;10.240;2023-07-09T07:40:05;100653.06;;;28.29;47.61
80654;BME280;70020;45.524;10.240;2023-07-09T07:42:31;100652.44;;;28.34;45.92
80654;BME280;70020;45.524;10.240;2023-07-09T07:44:57;100650.34;;;28.43;47.87
80654;BME280;70020;45.524;10.240;2023-07-09T07:47:23;100643.97;;;28.50;47.22
80654;BME280;70020;45.524;10.240;2023-07-09T07:49:52;100648.91;;;28.53;44.96
80654;BME280;70020;45.524;10.240;2023-07-09T07:52:17;100644.78;;;28.64;45.53
80654;BME280;70020;45.524;10.240;2023-07-09T07:54:43;100641.94;;;28.65;44.41
80654;BME280;70020;45.524;10.240;2023-07-09T07:57:09;100641.47;;;28.68;44.33
80654;BME280;70020;45.524;10.240;2023-07-09T07:59:36;100640.47;;;28.69;44.91
80654;BME280;70020;45.524;10.240;2023-07-09T08:02:03;100644.75;;;28.77;45.42
80654;BME280;70020;45.524;10.240;2023-07-09T08:04:29;100641.00;;;28.84;44.35
80654;BME280;70020;45.524;10.240;2023-07-09T08:06:54;100637.09;;;28.93;45.21
80654;BME280;70020;45.524;10.240;2023-07-09T08:09:20;100640.72;;;28.99;44.48
80654;BME280;70020;45.524;10.240;2023-07-09T08:11:46;100645.22;;;29.05;45.42
80654;BME280;70020;45.524;10.240;2023-07-09T08:14:12;100643.53;;;29.11;44.90
80654;BME280;70020;45.524;10.240;2023-07-09T08:16:38;100642.50;;;29.12;44.00
80654;BME280;70020;45.524;10.240;2023-07-09T08:19:04;100634.91;;;29.22;43.69
80654;BME280;70020;45.524;10.240;2023-07-09T08:21:30;100632.78;;;29.30;43.06
80654;BME280;70020;45.524;10.240;2023-07-09T08:23:56;100636.66;;;29.34;43.68
80654;BME280;70020;45.524;10.240;2023-07-09T08:26:22;100629.28;;;29.36;43.50
80654;BME280;70020;45.524;10.240;2023-07-09T08:28:50;100628.63;;;29.41;44.50
80654;BME280;70020;45.524;10.240;2023-07-09T08:31:16;100631.25;;;29.47;42.38
80654;BME280;70020;45.524;10.240;2023-07-09T08:33:42;100627.09;;;29.51;42.31
80654;BME280;70020;45.524;10.240;2023-07-09T08:36:07;100624.53;;;29.63;43.20
80654;BME280;70020;45.524;10.240;2023-07-09T08:38:33;100633.59;;;29.62;43.39
80654;BME280;70020;45.524;10.240;2023-07-09T08:41:00;100632.00;;;29.54;43.19
80654;BME280;70020;45.524;10.240;2023-07-09T08:43:32;100628.03;;;29.63;42.69
80654;BME280;70020;45.524;10.240;2023-07-09T08:46:38;100621.19;;;29.74;44.10
80654;BME280;70020;45.524;10.240;2023-07-09T08:48:55;100629.16;;;29.81;44.56
80654;BME280;70020;45.524;10.240;2023-07-09T08:51:35;100631.81;;;29.81;44.22
80654;BME280;70020;45.524;10.240;2023-07-09T08:54:03;100629.09;;;29.87;44.83
80654;BME280;70020;45.524;10.240;2023-07-09T08:56:33;100629.53;;;29.84;43.24
80654;BME280;70020;45.524;10.240;2023-07-09T08:59:01;100632.53;;;29.94;45.48
80654;BME280;70020;45.524;10.240;2023-07-09T09:01:35;100629.63;;;29.96;44.00
80654;BME280;70020;45.524;10.240;2023-07-09T09:04:22;100630.38;;;30.03;44.87
80654;BME280;70020;45.524;10.240;2023-07-09T09:09:39;100633.25;;;30.26;45.70
80654;BME280;70020;45.524;10.240;2023-07-09T09:12:21;100629.97;;;30.24;43.32
80654;BME280;70020;45.524;10.240;2023-07-09T09:15:16;100634.50;;;30.23;43.00
80654;BME280;70020;45.524;10.240;2023-07-09T09:17:43;100640.03;;;30.22;44.46
80654;BME280;70020;45.524;10.240;2023-07-09T09:20:15;100637.59;;;30.20;43.87
80654;BME280;70020;45.524;10.240;2023-07-09T09:22:48;100631.75;;;30.30;43.83
80654;BME280;70020;45.524;10.240;2023-07-09T09:27:40;100636.75;;;30.45;46.66
80654;BME280;70020;45.524;10.240;2023-07-09T09:30:14;100635.28;;;30.49;43.08
80654;BME280;70020;45.524;10.240;2023-07-09T09:32:43;100642.59;;;30.53;45.32
80654;BME280;70020;45.524;10.240;2023-07-09T09:35:17;100638.44;;;30.57;46.27
80654;BME280;70020;45.524;10.240;2023-07-09T09:37:54;100631.03;;;30.59;43.83
80654;BME280;70020;45.524;10.240;2023-07-09T09:40:21;100633.84;;;30.64;44.87
80654;BME280;70020;45.524;10.240;2023-07-09T09:42:49;100628.63;;;30.69;46.15
80654;BME280;70020;45.524;10.240;2023-07-09T09:45:20;100638.16;;;30.65;41.02
80654;BME280;70020;45.524;10.240;2023-07-09T09:47:47;100634.91;;;30.63;41.62
80654;BME280;70020;45.524;10.240;2023-07-09T09:50:18;100636.50;;;30.64;42.83
80654;BME280;70020;45.524;10.240;2023-07-09T09:52:46;100631.47;;;30.74;44.76
80654;BME280;70020;45.524;10.240;2023-07-09T09:55:20;100625.44;;;30.79;43.38
80654;BME280;70020;45.524;10.240;2023-07-09T09:57:53;100631.09;;;30.89;43.78
80654;BME280;70020;45.524;10.240;2023-07-09T10:00:22;100624.63;;;30.97;44.02
80654;BME280;70020;45.524;10.240;2023-07-09T10:02:48;100632.31;;;31.05;45.02
80654;BME280;70020;45.524;10.240;2023-07-09T10:05:15;100634.53;;;31.08;45.61
80654;BME280;70020;45.524;10.240;2023-07-09T10:08:00;100641.97;;;31.06;43.85
80654;BME280;70020;45.524;10.240;2023-07-09T10:10:30;100636.88;;;31.04;44.31
80654;BME280;70020;45.524;10.240;2023-07-09T10:13:27;100639.59;;;30.98;43.99
80654;BME280;70020;45.524;10.240;2023-07-09T10:16:21;100633.97;;;31.06;45.00
80654;BME280;70020;45.524;10.240;2023-07-09T10:24:24;100634.72;;;31.24;45.11
80654;BME280;70020;45.524;10.240;2023-07-09T10:27:09;100634.41;;;31.32;45.62
80654;BME280;70020;45.524;10.240;2023-07-09T10:35:05;100642.31;;;31.39;44.41
80654;BME280;70020;45.524;10.240;2023-07-09T10:40:36;100637.91;;;31.33;44.81
80654;BME280;70020;45.524;10.240;2023-07-09T10:43:05;100637.56;;;31.41;44.72
80654;BME280;70020;45.524;10.240;2023-07-09T10:45:39;100634.34;;;31.50;45.81
80654;BME280;70020;45.524;10.240;2023-07-09T10:48:13;100630.34;;;31.41;45.26
80654;BME280;70020;45.524;10.240;2023-07-09T10:50:51;100625.59;;;31.43;47.42
80654;BME280;70020;45.524;10.240;2023-07-09T10:56:12;100627.13;;;31.51;45.53
80654;BME280;70020;45.524;10.240;2023-07-09T11:01:42;100634.22;;;31.57;45.49
80654;BME280;70020;45.524;10.240;2023-07-09T11:04:37;100629.25;;;31.60;46.88
80654;BME280;70020;45.524;10.240;2023-07-09T11:07:11;100629.44;;;31.47;44.15
80654;BME280;70020;45.524;10.240;2023-07-09T11:09:46;100636.13;;;31.56;44.85
80654;BME280;70020;45.524;10.240;2023-07-09T11:12:16;100629.56;;;31.52;45.46
80654;BME280;70020;45.524;10.240;2023-07-09T11:17:31;100629.84;;;31.63;43.65
80654;BME280;70020;45.524;10.240;2023-07-09T11:20:00;100625.75;;;31.72;44.22
80654;BME280;70020;45.524;10.240;2023-07-09T11:22:38;100631.00;;;31.67;41.91
80654;BME280;70020;45.524;10.240;2023-07-09T11:25:12;100625.44;;;31.80;42.56
80654;BME280;70020;45.524;10.240;2023-07-09T11:28:05;100617.03;;;31.76;41.84
80654;BME280;70020;45.524;10.240;2023-07-09T11:30:31;100618.81;;;31.82;44.85
80654;BME280;70020;45.524;10.240;2023-07-09T11:33:02;100614.84;;;31.85;44.94
80654;BME280;70020;45.524;10.240;2023-07-09T11:35:51;100604.59;;;31.93;43.53
80654;BME280;70020;45.524;10.240;2023-07-09T11:38:24;100613.56;;;31.87;42.64
80654;BME280;70020;45.524;10.240;2023-07-09T11:40:52;100600.63;;;31.96;43.72
80654;BME280;70020;45.524;10.240;2023-07-09T11:45:55;100607.13;;;32.23;45.86
80654;BME280;70020;45.524;10.240;2023-07-09T11:48:25;100611.09;;;32.32;44.47
80654;BME280;70020;45.524;10.240;2023-07-09T11:50:53;100605.25;;;32.35;44.42
80654;BME280;70020;45.524;10.240;2023-07-09T11:53:38;100592.94;;;32.34;43.59
80654;BME280;70020;45.524;10.240;2023-07-09T11:56:08;100597.09;;;32.42;43.39
80654;BME280;70020;45.524;10.240;2023-07-09T11:58:34;100598.00;;;32.47;43.41
80654;BME280;70020;45.524;10.240;2023-07-09T12:01:01;100599.53;;;32.55;42.25
80654;BME280;70020;45.524;10.240;2023-07-09T12:03:30;100591.97;;;32.40;40.59
80654;BME280;70020;45.524;10.240;2023-07-09T12:06:07;100592.44;;;32.49;40.98
80654;BME280;70020;45.524;10.240;2023-07-09T12:08:44;100585.81;;;32.51;41.31
80654;BME280;70020;45.524;10.240;2023-07-09T12:13:47;100591.16;;;32.51;38.21
80654;BME280;70020;45.524;10.240;2023-07-09T12:16:34;100591.59;;;32.48;41.33
80654;BME280;70020;45.524;10.240;2023-07-09T12:19:00;100588.72;;;32.50;39.20
80654;BME280;70020;45.524;10.240;2023-07-09T12:21:26;100586.59;;;32.40;39.27
80654;BME280;70020;45.524;10.240;2023-07-09T12:23:55;100585.66;;;32.58;41.37
80654;BME280;70020;45.524;10.240;2023-07-09T12:26:23;100574.19;;;32.74;41.41
80654;BME280;70020;45.524;10.240;2023-07-09T12:28:54;100573.56;;;32.83;40.74
80654;BME280;70020;45.524;10.240;2023-07-09T12:31:26;100569.22;;;32.82;39.06
80654;BME280;70020;45.524;10.240;2023-07-09T12:33:53;100565.69;;;32.93;40.80
80654;BME280;70020;45.524;10.240;2023-07-09T12:36:20;100575.13;;;32.96;39.52
80654;BME280;70020;45.524;10.240;2023-07-09T12:38:49;100568.44;;;32.99;39.95
80654;BME280;70020;45.524;10.240;2023-07-09T12:44:00;100561.69;;;33.08;38.18
80654;BME280;70020;45.524;10.240;2023-07-09T12:46:25;100555.09;;;33.15;38.69
80654;BME280;70020;45.524;10.240;2023-07-09T12:48:54;100555.50;;;33.24;40.68
80654;BME280;70020;45.524;10.240;2023-07-09T12:51:23;100559.66;;;33.15;40.32
80654;BME280;70020;45.524;10.240;2023-07-09T12:54:24;100557.38;;;33.07;40.69
80654;BME280;70020;45.524;10.240;2023-07-09T12:56:52;100553.47;;;33.14;39.70
80654;BME280;70020;45.524;10.240;2023-07-09T12:59:23;100550.97;;;33.08;40.22
80654;BME280;70020;45.524;10.240;2023-07-09T13:02:19;100546.47;;;33.13;40.79
80654;BME280;70020;45.524;10.240;2023-07-09T13:04:45;100541.28;;;33.23;39.82
80654;BME280;70020;45.524;10.240;2023-07-09T13:09:50;100533.63;;;33.32;38.86
80654;BME280;70020;45.524;10.240;2023-07-09T13:12:17;100533.63;;;33.32;39.16
80654;BME280;70020;45.524;10.240;2023-07-09T13:14:52;100530.81;;;33.38;38.66
80654;BME280;70020;45.524;10.240;2023-07-09T13:17:19;100526.72;;;33.36;38.25
80654;BME280;70020;45.524;10.240;2023-07-09T13:19:44;100531.66;;;33.44;40.31
80654;BME280;70020;45.524;10.240;2023-07-09T13:22:19;100520.78;;;33.50;39.27
80654;BME280;70020;45.524;10.240;2023-07-09T13:24:45;100529.75;;;33.56;38.79
80654;BME280;70020;45.524;10.240;2023-07-09T13:27:13;100524.25;;;33.51;39.96
80654;BME280;70020;45.524;10.240;2023-07-09T13:29:39;100532.56;;;33.49;39.84
80654;BME280;70020;45.524;10.240;2023-07-09T13:32:10;100526.38;;;33.49;38.65
80654;BME280;70020;45.524;10.240;2023-07-09T13:34:35;100520.38;;;33.58;38.30